• Join FlightAware (Why Join?)
  • Login
  • US Flag 
06:35AM EDT


 

Airport Tracker/Info


-or-


 

Live Flight TrackerFlight Track Log ✈ ASQ5201 ✈ 01-May-2012 ✈ KMEM - KLIT

Flight Track Log - Related Links

Times and Time Zones

All times are in EDT time to prevent confusion due to time zone crossing. See the ASQ5201 flight status page for this flight to view local times or setup timezone preferences in your user account.

Time Position Orientation Groundspeed Altitude Reporting Facility
EDT Latitude Longitude Course Direction KTS MPH feet Rate Location/Type
03:41PM 35.0167 -89.9833 195° South 161 185 1,100  Level Anchorage Center
03:43PM 34.9667 -90.0000 253° West 202 232 2,900 1,980 Climbing Anchorage Center
03:44PM 34.9500 -90.0667 270° West 252 290 5,600 2,100 Climbing Anchorage Center
03:45PM 34.9500 -90.1500 284° West 254 292 7,000 1,080 Climbing Anchorage Center
03:46PM 34.9667 -90.2333 270° West 259 298 7,700 1,620 Climbing Anchorage Center
03:47PM 34.9667 -90.3333 282° West 269 310 10,200 2,340 Climbing Anchorage Center
03:48PM 34.9833 -90.4333 278° West 282 325 12,500 1,920 Climbing Anchorage Center
03:49PM 34.9947 -90.5344 277° West 311 358 14,000 720 Climbing Memphis Center
03:50PM 35.0050 -90.6436 279° West 322 371 14,000  Level Memphis Center
03:51PM 35.0192 -90.7578 273° West 336 387 14,000  Level Memphis Center
03:52PM 35.0250 -90.8769 265° West 346 398 14,000  Level Memphis Center
03:53PM 35.0161 -90.9961 268° West 351 404 14,000 -660 Level Memphis Center
03:54PM 35.0114 -91.1278 265° West 351 404 12,700 -1,620 Descending Memphis Center
03:54PM 35.0067 -91.1911 270° West 356 410 11,500 -1,800 Descending Memphis Center
03:55PM 35.0064 -91.2469 268° West 353 406 10,800 -1,080 Descending Memphis Center
03:56PM 35.0033 -91.3636 269° West 352 405 10,000 -420 Descending Memphis Center
03:57PM 35.0022 -91.4803 271° West 352 405 10,000  Level Memphis Center
03:58PM 35.0033 -91.5967 241° Southwest 345 397 10,000  Level Memphis Center
03:59PM 34.9586 -91.6950 235° Southwest 324 373 10,000  Level Memphis Center
04:00PM 34.9031 -91.7928 256° West 344 396 10,000 -600 Level Memphis Center
04:01PM 34.8856 -91.8811 253° West 298 343 8,900 -1,980 Descending Memphis Center
04:02PM 34.8592 -91.9894 254° West 259 298 5,600 -2,640 Descending Memphis Center
04:03PM 34.8414 -92.0650 238° Southwest 248 285 3,000 -1,800 Descending Memphis Center
04:04PM 34.8050 -92.1353 224° Southwest 228 262 2,000 -900 Descending Memphis Center
04:05PM 34.7689 -92.1772 228° Southwest 182 209 1,300 -780 Descending Memphis Center
04:06PM 34.7433 -92.2122 228° Southwest 137 158 500 -840 Descending Memphis Center